sensor_id;sensor_type;location;lat;lon;timestamp;P1;durP1;ratioP1;P2;durP2;ratioP2
4355;SDS011;64374;51.482;7.408;2023-03-22T00:00:07;8.77;;;4.87;;
4355;SDS011;64374;51.482;7.408;2023-03-22T00:02:42;8.73;;;4.10;;
4355;SDS011;64374;51.482;7.408;2023-03-22T00:05:11;4.10;;;3.70;;
4355;SDS011;64374;51.482;7.408;2023-03-22T00:07:39;10.33;;;4.13;;
4355;SDS011;64374;51.482;7.408;2023-03-22T00:10:09;9.87;;;4.47;;
4355;SDS011;64374;51.482;7.408;2023-03-22T00:12:38;7.30;;;4.50;;
4355;SDS011;64374;51.482;7.408;2023-03-22T00:15:07;6.43;;;4.60;;
4355;SDS011;64374;51.482;7.408;2023-03-22T00:17:38;11.37;;;4.60;;
4355;SDS011;64374;51.482;7.408;2023-03-22T00:20:08;5.47;;;3.80;;
4355;SDS011;64374;51.482;7.408;2023-03-22T00:22:39;6.87;;;4.40;;
4355;SDS011;64374;51.482;7.408;2023-03-22T00:25:08;11.47;;;5.00;;
4355;SDS011;64374;51.482;7.408;2023-03-22T00:27:36;5.83;;;4.20;;
4355;SDS011;64374;51.482;7.408;2023-03-22T00:30:05;8.13;;;3.57;;
4355;SDS011;64374;51.482;7.408;2023-03-22T00:32:37;5.97;;;4.00;;
4355;SDS011;64374;51.482;7.408;2023-03-22T00:35:06;6.27;;;4.93;;
4355;SDS011;64374;51.482;7.408;2023-03-22T00:37:37;6.20;;;4.57;;
4355;SDS011;64374;51.482;7.408;2023-03-22T00:40:08;7.40;;;5.00;;
4355;SDS011;64374;51.482;7.408;2023-03-22T00:42:39;10.23;;;4.73;;
4355;SDS011;64374;51.482;7.408;2023-03-22T00:45:09;8.73;;;4.70;;
4355;SDS011;64374;51.482;7.408;2023-03-22T00:47:40;5.60;;;4.10;;
4355;SDS011;64374;51.482;7.408;2023-03-22T00:50:09;8.90;;;4.00;;
4355;SDS011;64374;51.482;7.408;2023-03-22T00:52:40;6.33;;;4.30;;
4355;SDS011;64374;51.482;7.408;2023-03-22T00:55:09;6.03;;;4.00;;
4355;SDS011;64374;51.482;7.408;2023-03-22T00:57:38;6.10;;;4.50;;
4355;SDS011;64374;51.482;7.408;2023-03-22T01:00:07;6.00;;;4.33;;
4355;SDS011;64374;51.482;7.408;2023-03-22T01:02:40;8.90;;;5.10;;
4355;SDS011;64374;51.482;7.408;2023-03-22T01:05:15;6.13;;;4.30;;
4355;SDS011;64374;51.482;7.408;2023-03-22T01:07:47;7.17;;;5.40;;
4355;SDS011;64374;51.482;7.408;2023-03-22T01:10:17;7.03;;;4.20;;
4355;SDS011;64374;51.482;7.408;2023-03-22T01:12:46;6.53;;;4.73;;
4355;SDS011;64374;51.482;7.408;2023-03-22T01:15:15;6.07;;;4.03;;
4355;SDS011;64374;51.482;7.408;2023-03-22T01:17:45;8.07;;;4.73;;
4355;SDS011;64374;51.482;7.408;2023-03-22T01:20:13;7.70;;;5.30;;
4355;SDS011;64374;51.482;7.408;2023-03-22T01:22:42;8.27;;;4.83;;
4355;SDS011;64374;51.482;7.408;2023-03-22T01:25:13;8.63;;;5.20;;
4355;SDS011;64374;51.482;7.408;2023-03-22T01:27:42;7.67;;;5.17;;
4355;SDS011;64374;51.482;7.408;2023-03-22T01:30:11;15.30;;;5.43;;
4355;SDS011;64374;51.482;7.408;2023-03-22T01:32:40;7.17;;;5.23;;
4355;SDS011;64374;51.482;7.408;2023-03-22T01:35:10;7.20;;;5.00;;
4355;SDS011;64374;51.482;7.408;2023-03-22T01:37:41;11.37;;;5.70;;
4355;SDS011;64374;51.482;7.408;2023-03-22T01:40:12;6.50;;;5.50;;
4355;SDS011;64374;51.482;7.408;2023-03-22T01:42:43;9.30;;;6.57;;
4355;SDS011;64374;51.482;7.408;2023-03-22T01:45:25;7.10;;;4.90;;
4355;SDS011;64374;51.482;7.408;2023-03-22T01:48:10;11.60;;;6.70;;
4355;SDS011;64374;51.482;7.408;2023-03-22T01:50:45;11.97;;;6.13;;
4355;SDS011;64374;51.482;7.408;2023-03-22T01:53:26;13.27;;;6.40;;
4355;SDS011;64374;51.482;7.408;2023-03-22T01:55:57;7.57;;;5.47;;
4355;SDS011;64374;51.482;7.408;2023-03-22T01:58:29;7.70;;;5.80;;
4355;SDS011;64374;51.482;7.408;2023-03-22T02:01:03;9.40;;;6.10;;
4355;SDS011;64374;51.482;7.408;2023-03-22T02:03:45;9.53;;;6.30;;
4355;SDS011;64374;51.482;7.408;2023-03-22T02:06:23;6.30;;;5.37;;
4355;SDS011;64374;51.482;7.408;2023-03-22T02:08:58;6.33;;;5.70;;
4355;SDS011;64374;51.482;7.408;2023-03-22T02:11:28;7.33;;;6.20;;
4355;SDS011;64374;51.482;7.408;2023-03-22T02:14:07;9.27;;;5.87;;
4355;SDS011;64374;51.482;7.408;2023-03-22T02:16:59;12.87;;;5.90;;
4355;SDS011;64374;51.482;7.408;2023-03-22T02:19:59;9.23;;;6.73;;
4355;SDS011;64374;51.482;7.408;2023-03-22T02:23:09;10.10;;;6.20;;
4355;SDS011;64374;51.482;7.408;2023-03-22T02:29:05;14.20;;;7.37;;
4355;SDS011;64374;51.482;7.408;2023-03-22T02:31:44;8.77;;;6.93;;
4355;SDS011;64374;51.482;7.408;2023-03-22T02:40:25;8.67;;;6.80;;
4355;SDS011;64374;51.482;7.408;2023-03-22T02:43:00;10.90;;;6.90;;
4355;SDS011;64374;51.482;7.408;2023-03-22T02:45:37;12.43;;;7.33;;
4355;SDS011;64374;51.482;7.408;2023-03-22T02:48:15;12.00;;;6.87;;
4355;SDS011;64374;51.482;7.408;2023-03-22T02:50:50;8.60;;;6.53;;
4355;SDS011;64374;51.482;7.408;2023-03-22T02:53:22;10.07;;;6.17;;
4355;SDS011;64374;51.482;7.408;2023-03-22T02:55:59;11.80;;;6.80;;
4355;SDS011;64374;51.482;7.408;2023-03-22T02:58:32;9.77;;;6.20;;
4355;SDS011;64374;51.482;7.408;2023-03-22T03:01:05;10.07;;;5.73;;
4355;SDS011;64374;51.482;7.408;2023-03-22T03:03:39;11.30;;;6.50;;
4355;SDS011;64374;51.482;7.408;2023-03-22T03:06:15;9.53;;;6.47;;
4355;SDS011;64374;51.482;7.408;2023-03-22T03:08:47;9.00;;;6.33;;
4355;SDS011;64374;51.482;7.408;2023-03-22T03:11:19;9.53;;;6.90;;
4355;SDS011;64374;51.482;7.408;2023-03-22T03:13:50;13.57;;;6.73;;
4355;SDS011;64374;51.482;7.408;2023-03-22T03:16:19;9.43;;;6.00;;
4355;SDS011;64374;51.482;7.408;2023-03-22T03:18:53;8.23;;;6.80;;
4355;SDS011;64374;51.482;7.408;2023-03-22T03:21:32;11.63;;;7.00;;
4355;SDS011;64374;51.482;7.408;2023-03-22T03:24:13;12.43;;;7.47;;
4355;SDS011;64374;51.482;7.408;2023-03-22T03:26:50;9.63;;;6.03;;
4355;SDS011;64374;51.482;7.408;2023-03-22T03:29:26;12.40;;;6.83;;
4355;SDS011;64374;51.482;7.408;2023-03-22T03:32:00;10.83;;;6.70;;
4355;SDS011;64374;51.482;7.408;2023-03-22T03:34:37;10.10;;;6.20;;
4355;SDS011;64374;51.482;7.408;2023-03-22T03:37:18;10.60;;;6.33;;
4355;SDS011;64374;51.482;7.408;2023-03-22T03:39:50;8.73;;;6.40;;
4355;SDS011;64374;51.482;7.408;2023-03-22T03:42:27;11.13;;;6.97;;
4355;SDS011;64374;51.482;7.408;2023-03-22T03:45:19;7.27;;;5.70;;
4355;SDS011;64374;51.482;7.408;2023-03-22T03:47:48;16.03;;;6.93;;
4355;SDS011;64374;51.482;7.408;2023-03-22T03:50:24;11.90;;;7.17;;
4355;SDS011;64374;51.482;7.408;2023-03-22T03:52:54;11.47;;;6.60;;
4355;SDS011;64374;51.482;7.408;2023-03-22T03:55:23;8.60;;;5.73;;
4355;SDS011;64374;51.482;7.408;2023-03-22T03:57:54;8.50;;;6.50;;
4355;SDS011;64374;51.482;7.408;2023-03-22T04:00:22;13.57;;;7.73;;
4355;SDS011;64374;51.482;7.408;2023-03-22T04:03:11;14.90;;;7.17;;
4355;SDS011;64374;51.482;7.408;2023-03-22T04:06:03;11.73;;;6.90;;
4355;SDS011;64374;51.482;7.408;2023-03-22T04:08:36;11.63;;;7.33;;
4355;SDS011;64374;51.482;7.408;2023-03-22T04:11:05;9.73;;;6.30;;
4355;SDS011;64374;51.482;7.408;2023-03-22T04:13:36;10.77;;;6.27;;
4355;SDS011;64374;51.482;7.408;2023-03-22T04:16:10;11.87;;;7.00;;
4355;SDS011;64374;51.482;7.408;2023-03-22T04:18:40;9.60;;;6.60;;
4355;SDS011;64374;51.482;7.408;2023-03-22T04:21:10;7.50;;;6.37;;
4355;SDS011;64374;51.482;7.408;2023-03-22T04:23:50;11.40;;;6.70;;
4355;SDS011;64374;51.482;7.408;2023-03-22T04:26:19;11.23;;;6.63;;
4355;SDS011;64374;51.482;7.408;2023-03-22T04:29:18;13.90;;;7.23;;
4355;SDS011;64374;51.482;7.408;2023-03-22T04:31:52;10.43;;;7.03;;
4355;SDS011;64374;51.482;7.408;2023-03-22T04:34:25;7.90;;;5.80;;
4355;SDS011;64374;51.482;7.408;2023-03-22T04:36:59;9.53;;;5.60;;
4355;SDS011;64374;51.482;7.408;2023-03-22T04:39:30;12.83;;;5.90;;
4355;SDS011;64374;51.482;7.408;2023-03-22T04:42:22;14.27;;;6.87;;
4355;SDS011;64374;51.482;7.408;2023-03-22T04:45:05;9.47;;;6.60;;
4355;SDS011;64374;51.482;7.408;2023-03-22T04:47:37;10.30;;;5.87;;
4355;SDS011;64374;51.482;7.408;2023-03-22T04:50:10;12.80;;;6.57;;
4355;SDS011;64374;51.482;7.408;2023-03-22T04:52:46;11.03;;;6.27;;
4355;SDS011;64374;51.482;7.408;2023-03-22T04:55:18;8.77;;;5.47;;
4355;SDS011;64374;51.482;7.408;2023-03-22T04:57:47;11.80;;;6.00;;
4355;SDS011;64374;51.482;7.408;2023-03-22T05:00:18;9.40;;;6.37;;
4355;SDS011;64374;51.482;7.408;2023-03-22T05:02:47;10.50;;;6.10;;
4355;SDS011;64374;51.482;7.408;2023-03-22T05:05:24;8.97;;;5.50;;
4355;SDS011;64374;51.482;7.408;2023-03-22T05:07:54;7.13;;;5.70;;
4355;SDS011;64374;51.482;7.408;2023-03-22T05:10:25;7.60;;;6.00;;
4355;SDS011;64374;51.482;7.408;2023-03-22T05:12:56;11.10;;;6.23;;
4355;SDS011;64374;51.482;7.408;2023-03-22T05:15:31;9.97;;;5.50;;
4355;SDS011;64374;51.482;7.408;2023-03-22T05:18:03;9.70;;;6.50;;
4355;SDS011;64374;51.482;7.408;2023-03-22T05:20:33;10.23;;;6.70;;
4355;SDS011;64374;51.482;7.408;2023-03-22T05:23:15;11.50;;;6.73;;
4355;SDS011;64374;51.482;7.408;2023-03-22T05:25:47;7.33;;;5.80;;
4355;SDS011;64374;51.482;7.408;2023-03-22T05:28:18;10.40;;;6.83;;
4355;SDS011;64374;51.482;7.408;2023-03-22T05:30:57;13.67;;;6.20;;
4355;SDS011;64374;51.482;7.408;2023-03-22T05:33:38;12.10;;;5.70;;
4355;SDS011;64374;51.482;7.408;2023-03-22T05:36:10;7.07;;;5.83;;
4355;SDS011;64374;51.482;7.408;2023-03-22T05:38:58;12.20;;;7.00;;
4355;SDS011;64374;51.482;7.408;2023-03-22T05:41:26;13.67;;;6.53;;
4355;SDS011;64374;51.482;7.408;2023-03-22T05:43:57;12.90;;;6.37;;
4355;SDS011;64374;51.482;7.408;2023-03-22T05:46:31;9.40;;;5.70;;
4355;SDS011;64374;51.482;7.408;2023-03-22T05:49:20;10.80;;;6.73;;
4355;SDS011;64374;51.482;7.408;2023-03-22T05:51:49;11.07;;;5.90;;
4355;SDS011;64374;51.482;7.408;2023-03-22T05:54:20;7.50;;;5.27;;
4355;SDS011;64374;51.482;7.408;2023-03-22T05:56:49;7.23;;;5.60;;
4355;SDS011;64374;51.482;7.408;2023-03-22T05:59:22;8.03;;;5.60;;
4355;SDS011;64374;51.482;7.408;2023-03-22T06:01:52;12.10;;;7.27;;
4355;SDS011;64374;51.482;7.408;2023-03-22T06:04:23;10.90;;;6.50;;
4355;SDS011;64374;51.482;7.408;2023-03-22T06:07:06;9.47;;;6.10;;
4355;SDS011;64374;51.482;7.408;2023-03-22T06:09:41;8.27;;;5.80;;
4355;SDS011;64374;51.482;7.408;2023-03-22T06:12:21;8.87;;;6.30;;
4355;SDS011;64374;51.482;7.408;2023-03-22T06:15:00;9.90;;;5.53;;
4355;SDS011;64374;51.482;7.408;2023-03-22T06:17:50;12.53;;;6.70;;
4355;SDS011;64374;51.482;7.408;2023-03-22T06:20:22;14.50;;;6.57;;
4355;SDS011;64374;51.482;7.408;2023-03-22T06:22:58;10.13;;;5.43;;
4355;SDS011;64374;51.482;7.408;2023-03-22T06:25:48;14.47;;;6.27;;
4355;SDS011;64374;51.482;7.408;2023-03-22T06:28:18;14.20;;;5.57;;
4355;SDS011;64374;51.482;7.408;2023-03-22T06:30:52;9.00;;;5.90;;
4355;SDS011;64374;51.482;7.408;2023-03-22T06:33:23;8.87;;;5.23;;
4355;SDS011;64374;51.482;7.408;2023-03-22T06:35:58;13.73;;;6.57;;
4355;SDS011;64374;51.482;7.408;2023-03-22T06:38:35;9.73;;;5.97;;
4355;SDS011;64374;51.482;7.408;2023-03-22T06:41:04;7.80;;;4.93;;
4355;SDS011;64374;51.482;7.408;2023-03-22T06:43:32;11.20;;;5.00;;
4355;SDS011;64374;51.482;7.408;2023-03-22T06:46:12;11.20;;;5.70;;
4355;SDS011;64374;51.482;7.408;2023-03-22T06:48:53;8.27;;;5.03;;
4355;SDS011;64374;51.482;7.408;2023-03-22T06:51:21;12.10;;;5.20;;
4355;SDS011;64374;51.482;7.408;2023-03-22T06:53:51;7.00;;;4.70;;
4355;SDS011;64374;51.482;7.408;2023-03-22T06:56:19;9.10;;;5.43;;
4355;SDS011;64374;51.482;7.408;2023-03-22T06:58:51;13.87;;;5.90;;
4355;SDS011;64374;51.482;7.408;2023-03-22T07:01:24;12.20;;;5.90;;
4355;SDS011;64374;51.482;7.408;2023-03-22T07:03:54;8.70;;;5.27;;
4355;SDS011;64374;51.482;7.408;2023-03-22T07:06:24;6.97;;;5.17;;
4355;SDS011;64374;51.482;7.408;2023-03-22T07:08:53;6.33;;;4.30;;
4355;SDS011;64374;51.482;7.408;2023-03-22T07:11:27;11.23;;;5.07;;
4355;SDS011;64374;51.482;7.408;2023-03-22T07:13:58;10.60;;;5.67;;
4355;SDS011;64374;51.482;7.408;2023-03-22T07:16:42;8.00;;;4.27;;
4355;SDS011;64374;51.482;7.408;2023-03-22T07:19:13;4.77;;;4.10;;
4355;SDS011;64374;51.482;7.408;2023-03-22T07:21:45;5.20;;;4.37;;
4355;SDS011;64374;51.482;7.408;2023-03-22T07:24:14;7.83;;;4.13;;
4355;SDS011;64374;51.482;7.408;2023-03-22T07:26:45;4.63;;;4.13;;
4355;SDS011;64374;51.482;7.408;2023-03-22T07:29:18;7.80;;;5.13;;
4355;SDS011;64374;51.482;7.408;2023-03-22T07:31:46;10.77;;;4.43;;
4355;SDS011;64374;51.482;7.408;2023-03-22T07:34:22;12.30;;;4.77;;
4355;SDS011;64374;51.482;7.408;2023-03-22T07:37:11;10.70;;;4.27;;
4355;SDS011;64374;51.482;7.408;2023-03-22T07:39:40;6.13;;;3.70;;
4355;SDS011;64374;51.482;7.408;2023-03-22T07:42:08;7.20;;;3.77;;
4355;SDS011;64374;51.482;7.408;2023-03-22T07:44:40;6.20;;;4.60;;
4355;SDS011;64374;51.482;7.408;2023-03-22T07:47:31;14.23;;;4.80;;
4355;SDS011;64374;51.482;7.408;2023-03-22T07:50:34;6.43;;;3.87;;
4355;SDS011;64374;51.482;7.408;2023-03-22T07:53:04;6.00;;;3.60;;
4355;SDS011;64374;51.482;7.408;2023-03-22T07:55:35;8.60;;;4.93;;
4355;SDS011;64374;51.482;7.408;2023-03-22T07:58:03;10.47;;;3.53;;
4355;SDS011;64374;51.482;7.408;2023-03-22T08:00:33;6.37;;;3.23;;
4355;SDS011;64374;51.482;7.408;2023-03-22T08:03:21;12.00;;;4.07;;
4355;SDS011;64374;51.482;7.408;2023-03-22T08:06:07;7.20;;;3.10;;
4355;SDS011;64374;51.482;7.408;2023-03-22T08:08:37;8.63;;;3.87;;
4355;SDS011;64374;51.482;7.408;2023-03-22T08:11:06;13.90;;;3.93;;
4355;SDS011;64374;51.482;7.408;2023-03-22T08:13:35;8.60;;;3.53;;
4355;SDS011;64374;51.482;7.408;2023-03-22T08:16:04;7.33;;;2.87;;
4355;SDS011;64374;51.482;7.408;2023-03-22T08:18:34;5.90;;;2.13;;
4355;SDS011;64374;51.482;7.408;2023-03-22T08:21:03;7.00;;;2.20;;
4355;SDS011;64374;51.482;7.408;2023-03-22T08:23:35;8.93;;;3.13;;
4355;SDS011;64374;51.482;7.408;2023-03-22T08:26:27;3.13;;;2.17;;
4355;SDS011;64374;51.482;7.408;2023-03-22T08:29:02;3.97;;;2.17;;
4355;SDS011;64374;51.482;7.408;2023-03-22T08:31:35;7.23;;;2.13;;
4355;SDS011;64374;51.482;7.408;2023-03-22T08:34:05;2.53;;;1.60;;
4355;SDS011;64374;51.482;7.408;2023-03-22T08:36:33;8.00;;;1.90;;
4355;SDS011;64374;51.482;7.408;2023-03-22T08:39:10;7.93;;;2.17;;
4355;SDS011;64374;51.482;7.408;2023-03-22T08:41:47;4.73;;;1.80;;
4355;SDS011;64374;51.482;7.408;2023-03-22T08:44:15;5.60;;;1.93;;
4355;SDS011;64374;51.482;7.408;2023-03-22T08:46:44;4.27;;;2.10;;
4355;SDS011;64374;51.482;7.408;2023-03-22T08:49:12;2.23;;;2.00;;
4355;SDS011;64374;51.482;7.408;2023-03-22T08:51:50;5.63;;;1.90;;
4355;SDS011;64374;51.482;7.408;2023-03-22T08:54:38;5.30;;;2.30;;
4355;SDS011;64374;51.482;7.408;2023-03-22T08:57:25;4.20;;;2.00;;
4355;SDS011;64374;51.482;7.408;2023-03-22T09:00:26;7.67;;;2.80;;
4355;SDS011;64374;51.482;7.408;2023-03-22T09:03:33;3.40;;;1.80;;
4355;SDS011;64374;51.482;7.408;2023-03-22T09:06:01;4.13;;;2.20;;
4355;SDS011;64374;51.482;7.408;2023-03-22T09:08:35;2.87;;;2.17;;
4355;SDS011;64374;51.482;7.408;2023-03-22T09:11:09;3.23;;;2.17;;
4355;SDS011;64374;51.482;7.408;2023-03-22T09:13:45;7.50;;;2.10;;
4355;SDS011;64374;51.482;7.408;2023-03-22T09:16:14;10.80;;;3.03;;
4355;SDS011;64374;51.482;7.408;2023-03-22T09:18:45;9.13;;;2.43;;
4355;SDS011;64374;51.482;7.408;2023-03-22T09:21:16;9.50;;;2.70;;
4355;SDS011;64374;51.482;7.408;2023-03-22T09:24:08;6.67;;;2.73;;
4355;SDS011;64374;51.482;7.408;2023-03-22T09:26:43;5.93;;;2.03;;
4355;SDS011;64374;51.482;7.408;2023-03-22T09:29:14;4.80;;;2.00;;
4355;SDS011;64374;51.482;7.408;2023-03-22T09:31:42;3.83;;;2.10;;
4355;SDS011;64374;51.482;7.408;2023-03-22T09:34:34;6.33;;;2.90;;
4355;SDS011;64374;51.482;7.408;2023-03-22T09:37:03;7.70;;;2.63;;
4355;SDS011;64374;51.482;7.408;2023-03-22T09:39:41;4.90;;;2.60;;
4355;SDS011;64374;51.482;7.408;2023-03-22T09:42:18;12.33;;;2.73;;
4355;SDS011;64374;51.482;7.408;2023-03-22T09:44:53;7.27;;;2.47;;
4355;SDS011;64374;51.482;7.408;2023-03-22T09:47:33;10.23;;;2.40;;
4355;SDS011;64374;51.482;7.408;2023-03-22T09:50:11;8.07;;;2.00;;
4355;SDS011;64374;51.482;7.408;2023-03-22T09:52:42;4.50;;;2.50;;
4355;SDS011;64374;51.482;7.408;2023-03-22T09:55:15;3.70;;;2.17;;
4355;SDS011;64374;51.482;7.408;2023-03-22T09:57:50;4.87;;;1.97;;
4355;SDS011;64374;51.482;7.408;2023-03-22T10:00:30;7.57;;;2.70;;
4355;SDS011;64374;51.482;7.408;2023-03-22T10:03:07;3.40;;;1.97;;
4355;SDS011;64374;51.482;7.408;2023-03-22T10:05:49;11.60;;;2.00;;
4355;SDS011;64374;51.482;7.408;2023-03-22T10:08:26;6.90;;;1.90;;
4355;SDS011;64374;51.482;7.408;2023-03-22T10:11:17;5.47;;;2.00;;
4355;SDS011;64374;51.482;7.408;2023-03-22T10:13:58;4.33;;;1.90;;
4355;SDS011;64374;51.482;7.408;2023-03-22T10:16:31;3.27;;;1.83;;
4355;SDS011;64374;51.482;7.408;2023-03-22T10:19:03;3.63;;;1.80;;
4355;SDS011;64374;51.482;7.408;2023-03-22T10:21:34;4.37;;;1.70;;
4355;SDS011;64374;51.482;7.408;2023-03-22T10:24:03;4.90;;;1.77;;
4355;SDS011;64374;51.482;7.408;2023-03-22T10:26:40;3.97;;;1.90;;
4355;SDS011;64374;51.482;7.408;2023-03-22T10:29:14;4.90;;;1.60;;
4355;SDS011;64374;51.482;7.408;2023-03-22T10:31:50;6.63;;;1.80;;
4355;SDS011;64374;51.482;7.408;2023-03-22T10:34:20;2.70;;;1.90;;
4355;SDS011;64374;51.482;7.408;2023-03-22T10:36:50;4.53;;;2.10;;
4355;SDS011;64374;51.482;7.408;2023-03-22T10:39:24;4.43;;;2.60;;
4355;SDS011;64374;51.482;7.408;2023-03-22T10:41:57;4.80;;;1.70;;
4355;SDS011;64374;51.482;7.408;2023-03-22T10:44:30;5.40;;;2.40;;
4355;SDS011;64374;51.482;7.408;2023-03-22T10:47:04;8.83;;;2.17;;
4355;SDS011;64374;51.482;7.408;2023-03-22T10:49:37;4.60;;;2.00;;
4355;SDS011;64374;51.482;7.408;2023-03-22T10:52:13;3.00;;;1.60;;
4355;SDS011;64374;51.482;7.408;2023-03-22T10:54:53;4.73;;;1.80;;
4355;SDS011;64374;51.482;7.408;2023-03-22T10:57:28;4.07;;;1.77;;
4355;SDS011;64374;51.482;7.408;2023-03-22T10:59:58;7.10;;;1.60;;
4355;SDS011;64374;51.482;7.408;2023-03-22T11:02:27;5.47;;;1.63;;
4355;SDS011;64374;51.482;7.408;2023-03-22T11:04:59;4.60;;;1.80;;
4355;SDS011;64374;51.482;7.408;2023-03-22T11:07:34;6.47;;;1.40;;
4355;SDS011;64374;51.482;7.408;2023-03-22T11:10:16;4.77;;;1.53;;
4355;SDS011;64374;51.482;7.408;2023-03-22T11:12:49;3.33;;;1.80;;
4355;SDS011;64374;51.482;7.408;2023-03-22T11:15:22;4.60;;;1.73;;
4355;SDS011;64374;51.482;7.408;2023-03-22T11:17:54;4.47;;;1.50;;
4355;SDS011;64374;51.482;7.408;2023-03-22T11:20:27;4.43;;;2.03;;
4355;SDS011;64374;51.482;7.408;2023-03-22T11:22:59;5.53;;;1.53;;
4355;SDS011;64374;51.482;7.408;2023-03-22T11:25:31;1.93;;;1.23;;
4355;SDS011;64374;51.482;7.408;2023-03-22T11:28:06;6.20;;;1.40;;
4355;SDS011;64374;51.482;7.408;2023-03-22T11:30:38;2.87;;;1.40;;
4355;SDS011;64374;51.482;7.408;2023-03-22T11:33:14;7.87;;;1.37;;
4355;SDS011;64374;51.482;7.408;2023-03-22T11:35:45;3.47;;;1.30;;
4355;SDS011;64374;51.482;7.408;2023-03-22T11:38:23;3.30;;;1.30;;
4355;SDS011;64374;51.482;7.408;2023-03-22T11:40:57;3.40;;;1.53;;
4355;SDS011;64374;51.482;7.408;2023-03-22T11:43:30;6.53;;;1.50;;
4355;SDS011;64374;51.482;7.408;2023-03-22T11:46:03;6.43;;;1.67;;
4355;SDS011;64374;51.482;7.408;2023-03-22T11:48:34;3.80;;;1.50;;
4355;SDS011;64374;51.482;7.408;2023-03-22T11:51:05;6.27;;;1.50;;
4355;SDS011;64374;51.482;7.408;2023-03-22T11:53:36;6.67;;;1.73;;
4355;SDS011;64374;51.482;7.408;2023-03-22T11:56:08;3.60;;;1.43;;
4355;SDS011;64374;51.482;7.408;2023-03-22T11:58:43;7.00;;;2.00;;
4355;SDS011;64374;51.482;7.408;2023-03-22T12:01:23;1.73;;;1.10;;
4355;SDS011;64374;51.482;7.408;2023-03-22T12:04:00;6.67;;;1.70;;
4355;SDS011;64374;51.482;7.408;2023-03-22T12:06:36;1.90;;;1.10;;
4355;SDS011;64374;51.482;7.408;2023-03-22T12:09:16;4.60;;;1.40;;
4355;SDS011;64374;51.482;7.408;2023-03-22T12:11:52;8.60;;;1.80;;
4355;SDS011;64374;51.482;7.408;2023-03-22T12:14:24;2.97;;;1.40;;
4355;SDS011;64374;51.482;7.408;2023-03-22T12:16:58;3.53;;;1.20;;
4355;SDS011;64374;51.482;7.408;2023-03-22T12:19:36;5.77;;;1.53;;
4355;SDS011;64374;51.482;7.408;2023-03-22T12:22:15;4.13;;;1.47;;
4355;SDS011;64374;51.482;7.408;2023-03-22T12:24:45;5.60;;;1.60;;
4355;SDS011;64374;51.482;7.408;2023-03-22T12:27:16;2.27;;;1.40;;
4355;SDS011;64374;51.482;7.408;2023-03-22T12:29:49;10.23;;;1.63;;
4355;SDS011;64374;51.482;7.408;2023-03-22T12:32:23;4.60;;;1.10;;
4355;SDS011;64374;51.482;7.408;2023-03-22T12:34:55;6.40;;;1.43;;
4355;SDS011;64374;51.482;7.408;2023-03-22T12:37:42;3.83;;;1.27;;
4355;SDS011;64374;51.482;7.408;2023-03-22T12:40:16;2.97;;;1.27;;
4355;SDS011;64374;51.482;7.408;2023-03-22T12:42:50;1.90;;;1.37;;
4355;SDS011;64374;51.482;7.408;2023-03-22T12:45:27;4.23;;;2.03;;
4355;SDS011;64374;51.482;7.408;2023-03-22T12:48:01;4.27;;;1.50;;
4355;SDS011;64374;51.482;7.408;2023-03-22T12:50:33;1.83;;;1.40;;
4355;SDS011;64374;51.482;7.408;2023-03-22T12:53:09;1.97;;;1.77;;
4355;SDS011;64374;51.482;7.408;2023-03-22T12:55:40;1.70;;;1.03;;
4355;SDS011;64374;51.482;7.408;2023-03-22T12:58:13;2.17;;;1.30;;
4355;SDS011;64374;51.482;7.408;2023-03-22T13:00:46;4.20;;;1.80;;
4355;SDS011;64374;51.482;7.408;2023-03-22T13:03:22;2.60;;;1.17;;
4355;SDS011;64374;51.482;7.408;2023-03-22T13:05:58;2.17;;;1.10;;
4355;SDS011;64374;51.482;7.408;2023-03-22T13:11:35;4.43;;;1.33;;
4355;SDS011;64374;51.482;7.408;2023-03-22T13:14:03;5.73;;;1.10;;
4355;SDS011;64374;51.482;7.408;2023-03-22T13:16:46;5.80;;;1.40;;
4355;SDS011;64374;51.482;7.408;2023-03-22T13:22:15;3.40;;;1.30;;
4355;SDS011;64374;51.482;7.408;2023-03-22T13:27:37;2.20;;;1.17;;
4355;SDS011;64374;51.482;7.408;2023-03-22T13:30:13;5.37;;;1.97;;
4355;SDS011;64374;51.482;7.408;2023-03-22T13:32:49;6.63;;;1.60;;
4355;SDS011;64374;51.482;7.408;2023-03-22T13:35:25;1.97;;;1.40;;
4355;SDS011;64374;51.482;7.408;2023-03-22T13:38:05;2.40;;;1.43;;
4355;SDS011;64374;51.482;7.408;2023-03-22T13:40:38;3.00;;;1.50;;
4355;SDS011;64374;51.482;7.408;2023-03-22T13:43:22;5.57;;;1.40;;
4355;SDS011;64374;51.482;7.408;2023-03-22T13:46:02;4.00;;;1.57;;
4355;SDS011;64374;51.482;7.408;2023-03-22T13:48:42;3.10;;;1.70;;
4355;SDS011;64374;51.482;7.408;2023-03-22T13:51:28;5.97;;;1.77;;
4355;SDS011;64374;51.482;7.408;2023-03-22T13:54:01;5.20;;;1.90;;
4355;SDS011;64374;51.482;7.408;2023-03-22T13:56:45;2.17;;;1.43;;
4355;SDS011;64374;51.482;7.408;2023-03-22T13:59:19;3.23;;;2.00;;
4355;SDS011;64374;51.482;7.408;2023-03-22T14:01:55;2.93;;;1.40;;
4355;SDS011;64374;51.482;7.408;2023-03-22T14:04:28;3.67;;;1.77;;
4355;SDS011;64374;51.482;7.408;2023-03-22T14:07:04;2.53;;;1.37;;
4355;SDS011;64374;51.482;7.408;2023-03-22T14:09:41;8.83;;;2.10;;
4355;SDS011;64374;51.482;7.408;2023-03-22T14:12:15;1.73;;;1.40;;
4355;SDS011;64374;51.482;7.408;2023-03-22T14:14:48;5.10;;;1.47;;
4355;SDS011;64374;51.482;7.408;2023-03-22T14:17:28;1.93;;;1.30;;
4355;SDS011;64374;51.482;7.408;2023-03-22T14:20:02;3.43;;;1.43;;
4355;SDS011;64374;51.482;7.408;2023-03-22T14:22:38;5.90;;;2.47;;
4355;SDS011;64374;51.482;7.408;2023-03-22T14:25:12;2.63;;;1.30;;
4355;SDS011;64374;51.482;7.408;2023-03-22T14:27:44;5.17;;;1.57;;
4355;SDS011;64374;51.482;7.408;2023-03-22T14:30:18;3.60;;;1.40;;
4355;SDS011;64374;51.482;7.408;2023-03-22T14:32:54;6.27;;;2.00;;
4355;SDS011;64374;51.482;7.408;2023-03-22T14:35:25;5.73;;;1.90;;
4355;SDS011;64374;51.482;7.408;2023-03-22T14:38:01;7.40;;;1.50;;
4355;SDS011;64374;51.482;7.408;2023-03-22T14:40:31;10.27;;;1.90;;
4355;SDS011;64374;51.482;7.408;2023-03-22T14:43:12;4.90;;;1.40;;
4355;SDS011;64374;51.482;7.408;2023-03-22T14:45:42;7.00;;;1.97;;
4355;SDS011;64374;51.482;7.408;2023-03-22T14:48:13;3.07;;;1.90;;
4355;SDS011;64374;51.482;7.408;2023-03-22T14:50:44;8.87;;;2.20;;
4355;SDS011;64374;51.482;7.408;2023-03-22T14:53:14;2.13;;;1.10;;
4355;SDS011;64374;51.482;7.408;2023-03-22T14:55:43;5.13;;;2.00;;
4355;SDS011;64374;51.482;7.408;2023-03-22T14:58:14;3.50;;;1.67;;
4355;SDS011;64374;51.482;7.408;2023-03-22T15:00:43;3.10;;;1.37;;
4355;SDS011;64374;51.482;7.408;2023-03-22T15:03:13;3.43;;;1.80;;
4355;SDS011;64374;51.482;7.408;2023-03-22T15:05:48;7.30;;;2.00;;
4355;SDS011;64374;51.482;7.408;2023-03-22T15:08:22;5.43;;;2.30;;
4355;SDS011;64374;51.482;7.408;2023-03-22T15:10:52;6.90;;;1.70;;
4355;SDS011;64374;51.482;7.408;2023-03-22T15:13:24;5.03;;;1.43;;
4355;SDS011;64374;51.482;7.408;2023-03-22T15:15:52;5.07;;;1.73;;
4355;SDS011;64374;51.482;7.408;2023-03-22T15:18:20;5.23;;;1.93;;
4355;SDS011;64374;51.482;7.408;2023-03-22T15:20:51;1.53;;;1.40;;
4355;SDS011;64374;51.482;7.408;2023-03-22T15:23:20;4.20;;;1.63;;
4355;SDS011;64374;51.482;7.408;2023-03-22T15:25:55;2.87;;;1.57;;
4355;SDS011;64374;51.482;7.408;2023-03-22T15:28:26;5.30;;;1.60;;
4355;SDS011;64374;51.482;7.408;2023-03-22T15:30:54;3.53;;;1.13;;
4355;SDS011;64374;51.482;7.408;2023-03-22T15:33:30;7.80;;;1.90;;
4355;SDS011;64374;51.482;7.408;2023-03-22T15:35:59;6.63;;;1.67;;
4355;SDS011;64374;51.482;7.408;2023-03-22T15:38:30;5.67;;;1.57;;
4355;SDS011;64374;51.482;7.408;2023-03-22T15:41:01;6.63;;;2.20;;
4355;SDS011;64374;51.482;7.408;2023-03-22T15:43:31;3.57;;;2.17;;
4355;SDS011;64374;51.482;7.408;2023-03-22T15:46:14;4.63;;;1.80;;
4355;SDS011;64374;51.482;7.408;2023-03-22T15:48:45;4.93;;;1.57;;
4355;SDS011;64374;51.482;7.408;2023-03-22T15:51:18;2.77;;;1.60;;
4355;SDS011;64374;51.482;7.408;2023-03-22T15:53:48;10.33;;;2.17;;
4355;SDS011;64374;51.482;7.408;2023-03-22T15:56:20;7.70;;;1.93;;
4355;SDS011;64374;51.482;7.408;2023-03-22T15:58:52;4.63;;;1.70;;